sensor_id;sensor_type;location;lat;lon;timestamp;pressure;altitude;pressure_sealevel;temperature;humidity
73429;BME280;61643;49.564;17.412;2022-10-22T00:00:42;98246.06;;;6.60;86.14
73429;BME280;61643;49.564;17.412;2022-10-22T00:03:08;98234.66;;;6.53;86.97
73429;BME280;61643;49.564;17.412;2022-10-22T00:05:33;98239.44;;;6.63;86.29
73429;BME280;61643;49.564;17.412;2022-10-22T00:07:58;98239.09;;;6.71;87.30
73429;BME280;61643;49.564;17.412;2022-10-22T00:10:24;98238.50;;;6.57;86.57
73429;BME280;61643;49.564;17.412;2022-10-22T00:12:49;98236.66;;;6.69;86.67
73429;BME280;61643;49.564;17.412;2022-10-22T00:15:15;98236.56;;;6.64;86.54
73429;BME280;61643;49.564;17.412;2022-10-22T00:17:40;98235.94;;;6.62;87.11
73429;BME280;61643;49.564;17.412;2022-10-22T00:20:06;98241.53;;;6.61;86.75
73429;BME280;61643;49.564;17.412;2022-10-22T00:22:32;98230.03;;;6.60;86.08
73429;BME280;61643;49.564;17.412;2022-10-22T00:24:57;98224.22;;;6.63;85.76
73429;BME280;61643;49.564;17.412;2022-10-22T00:27:23;98228.16;;;6.61;86.50
73429;BME280;61643;49.564;17.412;2022-10-22T00:29:48;98232.56;;;6.55;86.23
73429;BME280;61643;49.564;17.412;2022-10-22T00:32:13;98232.81;;;6.54;86.81
73429;BME280;61643;49.564;17.412;2022-10-22T00:34:39;98228.13;;;6.37;87.13
73429;BME280;61643;49.564;17.412;2022-10-22T00:37:04;98232.47;;;6.50;86.48
73429;BME280;61643;49.564;17.412;2022-10-22T00:39:30;98226.88;;;6.52;87.08
73429;BME280;61643;49.564;17.412;2022-10-22T00:41:56;98215.34;;;6.39;87.29
73429;BME280;61643;49.564;17.412;2022-10-22T00:44:59;98211.03;;;6.38;87.05
73429;BME280;61643;49.564;17.412;2022-10-22T00:47:27;98201.84;;;6.34;87.13
73429;BME280;61643;49.564;17.412;2022-10-22T00:49:56;98203.28;;;6.49;86.65
73429;BME280;61643;49.564;17.412;2022-10-22T00:52:22;98211.75;;;6.46;85.86
73429;BME280;61643;49.564;17.412;2022-10-22T00:54:49;98210.72;;;6.47;85.92
73429;BME280;61643;49.564;17.412;2022-10-22T00:57:16;98214.56;;;6.51;86.41
73429;BME280;61643;49.564;17.412;2022-10-22T00:59:42;98213.84;;;6.55;86.56
73429;BME280;61643;49.564;17.412;2022-10-22T01:02:07;98215.72;;;6.55;86.61
73429;BME280;61643;49.564;17.412;2022-10-22T01:04:32;98211.44;;;6.54;85.89
73429;BME280;61643;49.564;17.412;2022-10-22T01:06:58;98202.38;;;6.55;86.66
73429;BME280;61643;49.564;17.412;2022-10-22T01:09:49;98185.84;;;6.58;85.66
73429;BME280;61643;49.564;17.412;2022-10-22T01:15:28;98192.13;;;6.63;85.74
73429;BME280;61643;49.564;17.412;2022-10-22T01:18:03;98182.59;;;6.67;85.63
73429;BME280;61643;49.564;17.412;2022-10-22T01:31:45;98193.97;;;6.51;86.64
73429;BME280;61643;49.564;17.412;2022-10-22T01:34:14;98182.94;;;6.59;86.40
73429;BME280;61643;49.564;17.412;2022-10-22T01:36:41;98181.06;;;6.60;85.71
73429;BME280;61643;49.564;17.412;2022-10-22T01:39:08;98184.81;;;6.47;86.01
73429;BME280;61643;49.564;17.412;2022-10-22T01:41:34;98185.84;;;6.58;86.19
73429;BME280;61643;49.564;17.412;2022-10-22T01:44:00;98187.25;;;6.60;86.03
73429;BME280;61643;49.564;17.412;2022-10-22T01:46:27;98198.28;;;6.64;86.04
73429;BME280;61643;49.564;17.412;2022-10-22T01:54:26;98201.91;;;6.58;86.56
73429;BME280;61643;49.564;17.412;2022-10-22T01:57:12;98197.81;;;6.55;85.87
73429;BME280;61643;49.564;17.412;2022-10-22T02:05:09;98188.00;;;6.26;87.32
73429;BME280;61643;49.564;17.412;2022-10-22T02:07:42;98173.94;;;6.30;85.77
73429;BME280;61643;49.564;17.412;2022-10-22T02:10:09;98169.53;;;6.24;86.39
73429;BME280;61643;49.564;17.412;2022-10-22T02:12:37;98170.34;;;6.25;86.52
73429;BME280;61643;49.564;17.412;2022-10-22T02:15:04;98158.88;;;6.36;85.98
73429;BME280;61643;49.564;17.412;2022-10-22T02:17:32;98176.50;;;6.37;85.88
73429;BME280;61643;49.564;17.412;2022-10-22T02:20:09;98187.66;;;6.34;85.55
73429;BME280;61643;49.564;17.412;2022-10-22T02:22:37;98182.91;;;6.24;86.67
73429;BME280;61643;49.564;17.412;2022-10-22T02:25:05;98175.34;;;6.21;86.05
73429;BME280;61643;49.564;17.412;2022-10-22T02:27:53;98193.19;;;6.09;86.79
73429;BME280;61643;49.564;17.412;2022-10-22T02:30:24;98181.53;;;5.92;87.34
73429;BME280;61643;49.564;17.412;2022-10-22T02:35:58;98152.56;;;6.07;86.88
73429;BME280;61643;49.564;17.412;2022-10-22T02:38:25;98145.94;;;6.21;85.61
73429;BME280;61643;49.564;17.412;2022-10-22T02:40:52;98147.13;;;6.25;86.83
73429;BME280;61643;49.564;17.412;2022-10-22T02:43:17;98147.22;;;6.30;86.17
73429;BME280;61643;49.564;17.412;2022-10-22T02:45:43;98152.56;;;6.30;86.45
73429;BME280;61643;49.564;17.412;2022-10-22T02:48:09;98153.63;;;6.18;86.49
73429;BME280;61643;49.564;17.412;2022-10-22T02:50:34;98157.44;;;6.10;87.04
73429;BME280;61643;49.564;17.412;2022-10-22T02:53:00;98159.53;;;6.20;86.88
73429;BME280;61643;49.564;17.412;2022-10-22T02:55:25;98164.06;;;6.19;87.12
73429;BME280;61643;49.564;17.412;2022-10-22T02:57:51;98169.41;;;6.19;87.60
73429;BME280;61643;49.564;17.412;2022-10-22T03:00:17;98163.44;;;6.06;87.05
73429;BME280;61643;49.564;17.412;2022-10-22T03:02:42;98155.28;;;6.01;87.03
73429;BME280;61643;49.564;17.412;2022-10-22T03:05:08;98162.16;;;6.08;87.25
73429;BME280;61643;49.564;17.412;2022-10-22T03:07:33;98155.09;;;6.02;87.44
73429;BME280;61643;49.564;17.412;2022-10-22T03:09:58;98157.91;;;6.07;87.53
73429;BME280;61643;49.564;17.412;2022-10-22T03:12:24;98150.22;;;6.11;87.02
73429;BME280;61643;49.564;17.412;2022-10-22T03:14:49;98148.00;;;5.96;86.91
73429;BME280;61643;49.564;17.412;2022-10-22T03:17:15;98156.94;;;6.02;87.99
73429;BME280;61643;49.564;17.412;2022-10-22T03:19:40;98154.03;;;6.03;87.84
73429;BME280;61643;49.564;17.412;2022-10-22T03:22:12;98146.41;;;6.18;86.33
73429;BME280;61643;49.564;17.412;2022-10-22T03:24:44;98155.34;;;6.24;86.54
73429;BME280;61643;49.564;17.412;2022-10-22T03:27:12;98156.28;;;6.29;86.76
73429;BME280;61643;49.564;17.412;2022-10-22T03:29:39;98146.75;;;6.33;86.57
73429;BME280;61643;49.564;17.412;2022-10-22T03:32:05;98138.38;;;6.30;87.46
73429;BME280;61643;49.564;17.412;2022-10-22T03:34:31;98129.34;;;6.31;86.79
73429;BME280;61643;49.564;17.412;2022-10-22T03:36:58;98136.88;;;6.34;86.44
73429;BME280;61643;49.564;17.412;2022-10-22T03:39:26;98135.97;;;6.40;86.70
73429;BME280;61643;49.564;17.412;2022-10-22T03:41:52;98135.72;;;6.41;86.98
73429;BME280;61643;49.564;17.412;2022-10-22T03:44:18;98137.72;;;6.46;86.05
73429;BME280;61643;49.564;17.412;2022-10-22T03:46:44;98137.81;;;6.28;86.87
73429;BME280;61643;49.564;17.412;2022-10-22T03:49:10;98136.31;;;6.32;86.82
73429;BME280;61643;49.564;17.412;2022-10-22T03:51:35;98138.53;;;6.35;86.14
73429;BME280;61643;49.564;17.412;2022-10-22T03:54:01;98143.66;;;6.36;86.24
73429;BME280;61643;49.564;17.412;2022-10-22T03:56:27;98145.38;;;6.31;85.92
73429;BME280;61643;49.564;17.412;2022-10-22T03:58:55;98152.72;;;6.47;85.53
73429;BME280;61643;49.564;17.412;2022-10-22T04:01:21;98160.63;;;6.54;85.83
73429;BME280;61643;49.564;17.412;2022-10-22T04:03:47;98157.94;;;6.54;86.74
73429;BME280;61643;49.564;17.412;2022-10-22T04:06:12;98167.97;;;6.58;86.34
73429;BME280;61643;49.564;17.412;2022-10-22T04:08:39;98185.97;;;6.63;86.37
73429;BME280;61643;49.564;17.412;2022-10-22T04:11:05;98190.84;;;6.66;87.28
73429;BME280;61643;49.564;17.412;2022-10-22T04:13:31;98176.53;;;6.60;87.82
73429;BME280;61643;49.564;17.412;2022-10-22T04:16:09;98172.69;;;6.44;87.38
73429;BME280;61643;49.564;17.412;2022-10-22T04:18:34;98167.94;;;6.47;87.58
73429;BME280;61643;49.564;17.412;2022-10-22T04:21:00;98156.44;;;6.58;86.68
73429;BME280;61643;49.564;17.412;2022-10-22T04:23:25;98149.34;;;6.63;86.99
73429;BME280;61643;49.564;17.412;2022-10-22T04:25:57;98146.31;;;6.71;86.58
73429;BME280;61643;49.564;17.412;2022-10-22T04:28:22;98134.31;;;6.74;87.00
73429;BME280;61643;49.564;17.412;2022-10-22T04:30:47;98119.91;;;6.75;86.49
73429;BME280;61643;49.564;17.412;2022-10-22T04:33:13;98094.22;;;6.74;86.56
73429;BME280;61643;49.564;17.412;2022-10-22T04:35:38;98104.66;;;6.87;85.70
73429;BME280;61643;49.564;17.412;2022-10-22T04:38:04;98113.38;;;6.94;85.60
73429;BME280;61643;49.564;17.412;2022-10-22T04:40:29;98125.81;;;7.00;86.37
73429;BME280;61643;49.564;17.412;2022-10-22T04:42:55;98132.88;;;7.06;86.50
73429;BME280;61643;49.564;17.412;2022-10-22T04:45:21;98135.09;;;7.09;86.24
73429;BME280;61643;49.564;17.412;2022-10-22T04:47:46;98133.00;;;7.11;87.54
73429;BME280;61643;49.564;17.412;2022-10-22T04:50:12;98126.25;;;7.09;87.01
73429;BME280;61643;49.564;17.412;2022-10-22T04:52:37;98130.81;;;7.08;86.71
73429;BME280;61643;49.564;17.412;2022-10-22T04:55:03;98127.41;;;7.13;86.32
73429;BME280;61643;49.564;17.412;2022-10-22T04:57:29;98141.03;;;7.11;87.57
73429;BME280;61643;49.564;17.412;2022-10-22T04:59:55;98147.41;;;7.10;87.85
73429;BME280;61643;49.564;17.412;2022-10-22T05:02:20;98143.72;;;7.00;86.63
73429;BME280;61643;49.564;17.412;2022-10-22T05:04:46;98133.94;;;7.05;85.86
73429;BME280;61643;49.564;17.412;2022-10-22T05:07:11;98120.91;;;7.09;85.67
73429;BME280;61643;49.564;17.412;2022-10-22T05:09:36;98116.13;;;7.11;85.30
73429;BME280;61643;49.564;17.412;2022-10-22T05:12:02;98115.66;;;7.14;84.60
73429;BME280;61643;49.564;17.412;2022-10-22T05:14:27;98112.25;;;7.18;84.89
73429;BME280;61643;49.564;17.412;2022-10-22T05:16:53;98127.97;;;7.26;84.63
73429;BME280;61643;49.564;17.412;2022-10-22T05:19:21;98141.22;;;7.33;84.61
73429;BME280;61643;49.564;17.412;2022-10-22T05:21:55;98139.44;;;7.38;84.59
73429;BME280;61643;49.564;17.412;2022-10-22T05:24:21;98139.44;;;7.38;85.98
73429;BME280;61643;49.564;17.412;2022-10-22T05:26:51;98147.13;;;7.35;86.58
73429;BME280;61643;49.564;17.412;2022-10-22T05:29:17;98141.75;;;7.35;86.57
73429;BME280;61643;49.564;17.412;2022-10-22T05:31:43;98137.25;;;7.24;86.95
73429;BME280;61643;49.564;17.412;2022-10-22T05:34:08;98144.09;;;7.31;86.50
73429;BME280;61643;49.564;17.412;2022-10-22T05:36:33;98154.22;;;7.41;86.14
73429;BME280;61643;49.564;17.412;2022-10-22T05:38:59;98150.25;;;7.43;87.04
73429;BME280;61643;49.564;17.412;2022-10-22T05:41:26;98149.72;;;7.30;88.64
73429;BME280;61643;49.564;17.412;2022-10-22T05:43:54;98153.97;;;7.42;87.10
73429;BME280;61643;49.564;17.412;2022-10-22T05:46:22;98155.81;;;7.42;87.94
73429;BME280;61643;49.564;17.412;2022-10-22T05:48:59;98152.34;;;7.41;87.34
73429;BME280;61643;49.564;17.412;2022-10-22T05:51:28;98161.44;;;7.40;87.98
73429;BME280;61643;49.564;17.412;2022-10-22T05:53:55;98164.69;;;7.42;88.10
73429;BME280;61643;49.564;17.412;2022-10-22T05:56:22;98160.47;;;7.47;87.54
73429;BME280;61643;49.564;17.412;2022-10-22T05:58:48;98168.03;;;7.50;87.10
73429;BME280;61643;49.564;17.412;2022-10-22T06:01:16;98177.47;;;7.52;86.97
73429;BME280;61643;49.564;17.412;2022-10-22T06:03:42;98175.13;;;7.56;85.30
73429;BME280;61643;49.564;17.412;2022-10-22T06:07:04;98163.88;;;7.42;85.68
73429;BME280;61643;49.564;17.412;2022-10-22T06:09:26;98171.63;;;7.55;86.44
73429;BME280;61643;49.564;17.412;2022-10-22T06:11:54;98175.47;;;7.59;86.67
73429;BME280;61643;49.564;17.412;2022-10-22T06:14:20;98188.72;;;7.66;86.61
73429;BME280;61643;49.564;17.412;2022-10-22T06:16:46;98184.25;;;7.71;87.32
73429;BME280;61643;49.564;17.412;2022-10-22T06:19:13;98176.25;;;7.60;87.50
73429;BME280;61643;49.564;17.412;2022-10-22T06:21:39;98178.09;;;7.71;86.46
73429;BME280;61643;49.564;17.412;2022-10-22T06:24:05;98178.22;;;7.64;86.94
73429;BME280;61643;49.564;17.412;2022-10-22T06:26:30;98162.50;;;7.68;87.49
73429;BME280;61643;49.564;17.412;2022-10-22T06:28:56;98168.03;;;7.78;87.66
73429;BME280;61643;49.564;17.412;2022-10-22T06:31:23;98174.75;;;7.92;86.30
73429;BME280;61643;49.564;17.412;2022-10-22T06:33:48;98176.19;;;8.00;87.44
73429;BME280;61643;49.564;17.412;2022-10-22T06:36:18;98170.50;;;7.96;87.92
73429;BME280;61643;49.564;17.412;2022-10-22T06:38:43;98179.69;;;8.00;87.07
73429;BME280;61643;49.564;17.412;2022-10-22T06:41:18;98187.03;;;8.05;87.89
73429;BME280;61643;49.564;17.412;2022-10-22T06:43:44;98168.09;;;8.11;87.40
73429;BME280;61643;49.564;17.412;2022-10-22T06:46:12;98177.13;;;8.05;89.53
73429;BME280;61643;49.564;17.412;2022-10-22T06:48:37;98164.53;;;8.06;88.75
73429;BME280;61643;49.564;17.412;2022-10-22T06:51:06;98162.59;;;8.18;88.74
73429;BME280;61643;49.564;17.412;2022-10-22T06:53:32;98171.06;;;8.26;88.37
73429;BME280;61643;49.564;17.412;2022-10-22T06:56:04;98181.91;;;8.31;88.32
73429;BME280;61643;49.564;17.412;2022-10-22T06:58:30;98210.66;;;8.36;88.44
73429;BME280;61643;49.564;17.412;2022-10-22T07:01:25;98213.81;;;8.33;88.19
73429;BME280;61643;49.564;17.412;2022-10-22T07:03:52;98211.47;;;8.36;87.13
73429;BME280;61643;49.564;17.412;2022-10-22T07:06:19;98222.78;;;8.38;87.51
73429;BME280;61643;49.564;17.412;2022-10-22T07:08:45;98221.00;;;8.44;86.92
73429;BME280;61643;49.564;17.412;2022-10-22T07:11:20;98210.09;;;8.51;87.86
73429;BME280;61643;49.564;17.412;2022-10-22T07:13:46;98218.25;;;8.56;87.71
73429;BME280;61643;49.564;17.412;2022-10-22T07:16:12;98203.13;;;8.50;87.82
73429;BME280;61643;49.564;17.412;2022-10-22T07:18:38;98214.84;;;8.60;88.00
73429;BME280;61643;49.564;17.412;2022-10-22T07:21:06;98231.31;;;8.69;87.52
73429;BME280;61643;49.564;17.412;2022-10-22T07:23:32;98245.38;;;8.76;86.61
73429;BME280;61643;49.564;17.412;2022-10-22T07:25:57;98260.53;;;8.82;85.96
73429;BME280;61643;49.564;17.412;2022-10-22T07:28:23;98259.94;;;8.80;85.47
73429;BME280;61643;49.564;17.412;2022-10-22T07:30:49;98249.31;;;8.85;86.82
73429;BME280;61643;49.564;17.412;2022-10-22T07:33:15;98249.22;;;8.80;85.46
73429;BME280;61643;49.564;17.412;2022-10-22T07:35:41;98248.34;;;8.74;86.56
73429;BME280;61643;49.564;17.412;2022-10-22T07:38:07;98231.97;;;8.76;85.35
73429;BME280;61643;49.564;17.412;2022-10-22T07:40:34;98235.47;;;8.76;85.00
73429;BME280;61643;49.564;17.412;2022-10-22T07:43:00;98228.25;;;8.77;84.55
73429;BME280;61643;49.564;17.412;2022-10-22T07:45:26;98224.50;;;8.78;84.83
73429;BME280;61643;49.564;17.412;2022-10-22T07:47:51;98226.19;;;8.84;83.58
73429;BME280;61643;49.564;17.412;2022-10-22T07:50:17;98223.84;;;8.87;82.73
73429;BME280;61643;49.564;17.412;2022-10-22T07:52:43;98250.19;;;8.90;83.19
73429;BME280;61643;49.564;17.412;2022-10-22T07:55:08;98254.81;;;8.95;83.60
73429;BME280;61643;49.564;17.412;2022-10-22T07:57:34;98257.00;;;8.98;83.22
73429;BME280;61643;49.564;17.412;2022-10-22T08:00:01;98260.19;;;8.95;85.21
73429;BME280;61643;49.564;17.412;2022-10-22T08:02:27;98261.34;;;8.99;86.04
73429;BME280;61643;49.564;17.412;2022-10-22T08:04:52;98258.41;;;9.01;84.60
73429;BME280;61643;49.564;17.412;2022-10-22T08:07:21;98275.63;;;9.05;84.74
73429;BME280;61643;49.564;17.412;2022-10-22T08:09:46;98257.97;;;9.09;84.54
73429;BME280;61643;49.564;17.412;2022-10-22T08:12:12;98270.44;;;9.15;84.78
73429;BME280;61643;49.564;17.412;2022-10-22T08:14:37;98269.31;;;9.11;81.28
73429;BME280;61643;49.564;17.412;2022-10-22T08:17:02;98274.81;;;9.21;81.83
73429;BME280;61643;49.564;17.412;2022-10-22T08:19:28;98276.50;;;9.27;83.35
73429;BME280;61643;49.564;17.412;2022-10-22T08:21:55;98274.13;;;9.30;85.10
73429;BME280;61643;49.564;17.412;2022-10-22T08:24:20;98280.09;;;9.32;85.03
73429;BME280;61643;49.564;17.412;2022-10-22T08:26:46;98281.47;;;9.35;84.71
73429;BME280;61643;49.564;17.412;2022-10-22T08:29:11;98282.28;;;9.35;85.96
73429;BME280;61643;49.564;17.412;2022-10-22T08:31:37;98279.00;;;9.33;86.17
73429;BME280;61643;49.564;17.412;2022-10-22T08:34:02;98284.38;;;9.33;85.97
73429;BME280;61643;49.564;17.412;2022-10-22T08:36:30;98283.28;;;9.29;83.22
73429;BME280;61643;49.564;17.412;2022-10-22T08:38:55;98275.78;;;9.31;84.61
73429;BME280;61643;49.564;17.412;2022-10-22T08:41:22;98257.81;;;9.15;87.29
73429;BME280;61643;49.564;17.412;2022-10-22T08:46:54;98263.16;;;9.15;86.37
73429;BME280;61643;49.564;17.412;2022-10-22T08:49:26;98262.38;;;9.15;85.38
73429;BME280;61643;49.564;17.412;2022-10-22T08:51:54;98273.03;;;9.10;85.01
73429;BME280;61643;49.564;17.412;2022-10-22T08:55:11;98287.66;;;9.19;85.51
73429;BME280;61643;49.564;17.412;2022-10-22T09:08:06;98278.19;;;9.11;85.55
73429;BME280;61643;49.564;17.412;2022-10-22T09:10:35;98268.97;;;9.07;86.82
73429;BME280;61643;49.564;17.412;2022-10-22T09:13:02;98277.69;;;9.14;86.40
73429;BME280;61643;49.564;17.412;2022-10-22T09:15:28;98270.66;;;9.13;87.92
73429;BME280;61643;49.564;17.412;2022-10-22T09:25:43;98289.28;;;9.20;86.18
73429;BME280;61643;49.564;17.412;2022-10-22T09:28:09;98291.16;;;9.19;87.13
73429;BME280;61643;49.564;17.412;2022-10-22T09:30:36;98304.91;;;9.23;87.05
73429;BME280;61643;49.564;17.412;2022-10-22T09:38:20;98306.94;;;9.16;88.93
73429;BME280;61643;49.564;17.412;2022-10-22T09:40:50;98308.34;;;9.18;87.44
73429;BME280;61643;49.564;17.412;2022-10-22T09:43:17;98305.97;;;9.05;89.10
73429;BME280;61643;49.564;17.412;2022-10-22T09:45:43;98314.78;;;9.17;87.93
73429;BME280;61643;49.564;17.412;2022-10-22T09:48:19;98305.25;;;9.10;87.78
73429;BME280;61643;49.564;17.412;2022-10-22T09:50:48;98313.47;;;9.20;86.88
73429;BME280;61643;49.564;17.412;2022-10-22T09:53:18;98303.63;;;9.09;87.65
73429;BME280;61643;49.564;17.412;2022-10-22T09:55:54;98307.22;;;9.14;88.30
73429;BME280;61643;49.564;17.412;2022-10-22T09:58:20;98297.69;;;9.07;87.60
73429;BME280;61643;49.564;17.412;2022-10-22T10:00:51;98304.44;;;9.09;89.13
73429;BME280;61643;49.564;17.412;2022-10-22T10:03:19;98300.03;;;9.20;87.74
73429;BME280;61643;49.564;17.412;2022-10-22T10:05:54;98292.25;;;9.18;88.05
73429;BME280;61643;49.564;17.412;2022-10-22T10:08:22;98295.72;;;9.19;87.17
73429;BME280;61643;49.564;17.412;2022-10-22T10:10:55;98292.06;;;9.25;87.83
73429;BME280;61643;49.564;17.412;2022-10-22T10:13:37;98292.06;;;9.25;87.31
73429;BME280;61643;49.564;17.412;2022-10-22T10:16:14;98288.72;;;9.34;86.34
73429;BME280;61643;49.564;17.412;2022-10-22T10:21:48;98291.47;;;9.39;86.05
73429;BME280;61643;49.564;17.412;2022-10-22T10:27:21;98273.63;;;9.33;85.76
73429;BME280;61643;49.564;17.412;2022-10-22T10:30:09;98270.97;;;9.33;87.22
73429;BME280;61643;49.564;17.412;2022-10-22T10:33:14;98272.19;;;9.43;86.42
73429;BME280;61643;49.564;17.412;2022-10-22T10:38:32;98283.56;;;9.50;86.22
73429;BME280;61643;49.564;17.412;2022-10-22T10:41:28;98277.19;;;9.56;85.57
73429;BME280;61643;49.564;17.412;2022-10-22T10:47:11;98275.28;;;9.73;84.32
73429;BME280;61643;49.564;17.412;2022-10-22T10:49:42;98284.53;;;9.82;84.58
73429;BME280;61643;49.564;17.412;2022-10-22T10:52:37;98296.13;;;9.87;83.66
73429;BME280;61643;49.564;17.412;2022-10-22T10:58:24;98302.28;;;9.83;83.43
73429;BME280;61643;49.564;17.412;2022-10-22T11:00:57;98299.91;;;9.86;83.71
73429;BME280;61643;49.564;17.412;2022-10-22T11:06:20;98297.44;;;9.85;82.83
73429;BME280;61643;49.564;17.412;2022-10-22T11:11:50;98297.66;;;9.78;83.06
73429;BME280;61643;49.564;17.412;2022-10-22T11:14:53;98285.53;;;9.76;83.64
73429;BME280;61643;49.564;17.412;2022-10-22T11:17:22;98287.44;;;9.59;84.10
73429;BME280;61643;49.564;17.412;2022-10-22T11:19:57;98270.19;;;9.55;84.53
73429;BME280;61643;49.564;17.412;2022-10-22T11:22:31;98272.94;;;9.60;84.23
73429;BME280;61643;49.564;17.412;2022-10-22T11:25:04;98276.69;;;9.59;84.83
73429;BME280;61643;49.564;17.412;2022-10-22T11:30:14;98263.50;;;9.57;84.21
73429;BME280;61643;49.564;17.412;2022-10-22T11:32:42;98268.63;;;9.59;84.22
73429;BME280;61643;49.564;17.412;2022-10-22T11:35:14;98283.69;;;9.60;84.70
73429;BME280;61643;49.564;17.412;2022-10-22T11:37:43;98266.31;;;9.46;85.77
73429;BME280;61643;49.564;17.412;2022-10-22T11:40:16;98260.44;;;9.49;85.55
73429;BME280;61643;49.564;17.412;2022-10-22T11:50:23;98263.13;;;9.49;86.79
73429;BME280;61643;49.564;17.412;2022-10-22T11:53:04;98263.31;;;9.42;87.00
73429;BME280;61643;49.564;17.412;2022-10-22T11:55:33;98256.91;;;9.48;86.83
73429;BME280;61643;49.564;17.412;2022-10-22T12:00:50;98250.59;;;9.37;88.92
73429;BME280;61643;49.564;17.412;2022-10-22T12:03:20;98254.78;;;9.28;88.51
73429;BME280;61643;49.564;17.412;2022-10-22T12:06:22;98248.59;;;9.28;90.17
73429;BME280;61643;49.564;17.412;2022-10-22T12:08:51;98248.50;;;9.23;89.33
73429;BME280;61643;49.564;17.412;2022-10-22T12:11:39;98249.47;;;9.33;89.44
73429;BME280;61643;49.564;17.412;2022-10-22T12:14:23;98241.78;;;9.20;90.46
73429;BME280;61643;49.564;17.412;2022-10-22T12:17:10;98239.59;;;9.17;90.31
73429;BME280;61643;49.564;17.412;2022-10-22T12:19:42;98242.34;;;9.22;90.08
73429;BME280;61643;49.564;17.412;2022-10-22T12:22:20;98236.63;;;9.19;91.75
73429;BME280;61643;49.564;17.412;2022-10-22T12:24:52;98236.91;;;9.17;92.45
73429;BME280;61643;49.564;17.412;2022-10-22T12:27:26;98229.03;;;9.11;92.43
73429;BME280;61643;49.564;17.412;2022-10-22T12:29:58;98226.44;;;8.99;92.07
73429;BME280;61643;49.564;17.412;2022-10-22T12:32:38;98228.06;;;9.00;91.60
73429;BME280;61643;49.564;17.412;2022-10-22T12:35:17;98236.91;;;9.17;91.03
73429;BME280;61643;49.564;17.412;2022-10-22T12:37:43;98233.16;;;9.18;91.19
73429;BME280;61643;49.564;17.412;2022-10-22T12:40:26;98232.09;;;9.19;91.36
73429;BME280;61643;49.564;17.412;2022-10-22T12:42:57;98225.25;;;9.28;90.81
73429;BME280;61643;49.564;17.412;2022-10-22T12:45:29;98241.09;;;9.30;91.19
73429;BME280;61643;49.564;17.412;2022-10-22T12:47:58;98233.81;;;9.25;91.67
73429;BME280;61643;49.564;17.412;2022-10-22T12:50:38;98240.22;;;9.24;91.48
73429;BME280;61643;49.564;17.412;2022-10-22T12:53:05;98237.22;;;9.21;92.22
73429;BME280;61643;49.564;17.412;2022-10-22T12:55:32;98246.34;;;9.20;91.66
73429;BME280;61643;49.564;17.412;2022-10-22T12:57:58;98247.88;;;9.16;93.07
73429;BME280;61643;49.564;17.412;2022-10-22T13:00:28;98240.31;;;9.13;93.72
73429;BME280;61643;49.564;17.412;2022-10-22T13:02:58;98241.97;;;9.14;92.96
73429;BME280;61643;49.564;17.412;2022-10-22T13:05:25;98254.66;;;9.18;92.33
73429;BME280;61643;49.564;17.412;2022-10-22T13:08:22;98260.47;;;9.15;94.33
73429;BME280;61643;49.564;17.412;2022-10-22T13:10:53;98261.72;;;9.24;92.20
73429;BME280;61643;49.564;17.412;2022-10-22T13:18:45;98267.84;;;9.03;93.67
73429;BME280;61643;49.564;17.412;2022-10-22T13:21:26;98260.34;;;9.05;92.72
73429;BME280;61643;49.564;17.412;2022-10-22T13:23:54;98252.78;;;9.02;93.61
73429;BME280;61643;49.564;17.412;2022-10-22T13:26:20;98244.63;;;9.14;92.94
73429;BME280;61643;49.564;17.412;2022-10-22T13:28:54;98234.72;;;9.14;93.05
73429;BME280;61643;49.564;17.412;2022-10-22T13:31:24;98237.94;;;9.16;94.46
73429;BME280;61643;49.564;17.412;2022-10-22T13:33:53;98234.13;;;9.12;94.29
73429;BME280;61643;49.564;17.412;2022-10-22T13:36:20;98230.41;;;9.13;94.53
73429;BME280;61643;49.564;17.412;2022-10-22T13:38:46;98229.41;;;9.19;94.73
73429;BME280;61643;49.564;17.412;2022-10-22T13:41:29;98225.25;;;9.12;94.74
73429;BME280;61643;49.564;17.412;2022-10-22T13:43:57;98215.59;;;9.11;95.16
73429;BME280;61643;49.564;17.412;2022-10-22T13:46:24;98214.28;;;9.13;95.35
73429;BME280;61643;49.564;17.412;2022-10-22T13:48:52;98229.66;;;9.18;96.13
73429;BME280;61643;49.564;17.412;2022-10-22T13:51:24;98242.34;;;9.22;95.18
73429;BME280;61643;49.564;17.412;2022-10-22T13:53:52;98243.97;;;9.23;95.21
73429;BME280;61643;49.564;17.412;2022-10-22T13:56:20;98248.69;;;9.33;95.32
73429;BME280;61643;49.564;17.412;2022-10-22T13:58:46;98253.28;;;9.37;94.79
73429;BME280;61643;49.564;17.412;2022-10-22T14:03:44;98251.00;;;9.46;94.89
73429;BME280;61643;49.564;17.412;2022-10-22T14:06:12;98259.28;;;9.45;94.68
73429;BME280;61643;49.564;17.412;2022-10-22T14:08:38;98260.28;;;9.38;95.16
73429;BME280;61643;49.564;17.412;2022-10-22T14:11:04;98252.16;;;9.33;95.00
73429;BME280;61643;49.564;17.412;2022-10-22T14:13:29;98257.09;;;9.42;94.92
73429;BME280;61643;49.564;17.412;2022-10-22T14:15:54;98258.75;;;9.43;95.05
73429;BME280;61643;49.564;17.412;2022-10-22T14:18:25;98260.06;;;9.40;95.80
73429;BME280;61643;49.564;17.412;2022-10-22T14:20:55;98251.38;;;9.33;96.04
73429;BME280;61643;49.564;17.412;2022-10-22T14:23:24;98256.88;;;9.26;96.19
73429;BME280;61643;49.564;17.412;2022-10-22T14:25:51;98245.00;;;9.39;95.45
73429;BME280;61643;49.564;17.412;2022-10-22T14:28:16;98243.38;;;9.38;95.82
73429;BME280;61643;49.564;17.412;2022-10-22T14:30:42;98251.00;;;9.46;95.37
73429;BME280;61643;49.564;17.412;2022-10-22T14:33:19;98250.19;;;9.46;95.79
73429;BME280;61643;49.564;17.412;2022-10-22T14:35:46;98254.56;;;9.52;94.72
73429;BME280;61643;49.564;17.412;2022-10-22T14:38:12;98255.44;;;9.57;93.86
73429;BME280;61643;49.564;17.412;2022-10-22T14:40:38;98255.13;;;9.54;94.74
73429;BME280;61643;49.564;17.412;2022-10-22T14:43:04;98270.84;;;9.45;95.90
73429;BME280;61643;49.564;17.412;2022-10-22T14:45:30;98262.47;;;9.42;95.06
73429;BME280;61643;49.564;17.412;2022-10-22T14:47:55;98268.81;;;9.52;95.36